首页
METAR-TAF:

METAR-TAF

机场 :

安齊拉納納, 马达加斯加

纬度: 12-21S, 经度: 049-18E, 海拔: 114米

当前天气观测

该预报发布于1小时和13分钟前的08:00 UTC
风速12节,风向东南
温度 31°C
湿度 52%
气压 1012 hPa
能见度10公里或以上
散云层高于2000英尺

METAR: FMNA 160800Z 14012KT 9999 SCT020 31/20 Q1012

时间: 12:13 (09:13 UTC)


TAF: 丢失

超过4000个机场的气象观测和天气预报(METAR&TAF报告)。

可查询的气象台以黄色和红色小点在地图上表示。

将鼠标移到小点上方,可查看气象台名称。

然后点击查看天气观测和预报。

如需切换地图:点击带黑十字的绿色按钮放大地图;点击带横线的绿色按钮缩小地图;或者点击绿色箭头查看邻近地区的地图。


METAR-TAF: